sensor_id;sensor_type;location;lat;lon;timestamp;P1;durP1;ratioP1;P2;durP2;ratioP2
1294;SDS011;640;48.310;11.728;2023-05-14T00:02:22;13.77;;;9.45;;
1294;SDS011;640;48.310;11.728;2023-05-14T00:04:50;13.30;;;10.40;;
1294;SDS011;640;48.310;11.728;2023-05-14T00:07:19;13.82;;;10.38;;
1294;SDS011;640;48.310;11.728;2023-05-14T00:09:49;13.55;;;10.32;;
1294;SDS011;640;48.310;11.728;2023-05-14T00:12:17;12.57;;;9.65;;
1294;SDS011;640;48.310;11.728;2023-05-14T00:14:45;13.38;;;10.02;;
1294;SDS011;640;48.310;11.728;2023-05-14T00:17:13;15.20;;;10.35;;
1294;SDS011;640;48.310;11.728;2023-05-14T00:19:42;16.00;;;9.95;;
1294;SDS011;640;48.310;11.728;2023-05-14T00:22:10;12.77;;;9.98;;
1294;SDS011;640;48.310;11.728;2023-05-14T00:24:38;13.57;;;10.68;;
1294;SDS011;640;48.310;11.728;2023-05-14T00:27:08;13.48;;;9.50;;
1294;SDS011;640;48.310;11.728;2023-05-14T00:29:36;13.23;;;9.47;;
1294;SDS011;640;48.310;11.728;2023-05-14T00:32:05;14.68;;;10.20;;
1294;SDS011;640;48.310;11.728;2023-05-14T00:34:33;15.00;;;9.93;;
1294;SDS011;640;48.310;11.728;2023-05-14T00:37:02;14.30;;;10.38;;
1294;SDS011;640;48.310;11.728;2023-05-14T00:39:30;13.25;;;9.80;;
1294;SDS011;640;48.310;11.728;2023-05-14T00:41:58;12.77;;;9.25;;
1294;SDS011;640;48.310;11.728;2023-05-14T00:44:28;13.30;;;9.98;;
1294;SDS011;640;48.310;11.728;2023-05-14T00:46:56;14.23;;;10.25;;
1294;SDS011;640;48.310;11.728;2023-05-14T00:49:25;13.57;;;10.20;;
1294;SDS011;640;48.310;11.728;2023-05-14T00:51:54;14.75;;;10.18;;
1294;SDS011;640;48.310;11.728;2023-05-14T00:54:24;12.65;;;9.55;;
1294;SDS011;640;48.310;11.728;2023-05-14T00:56:53;13.88;;;9.93;;
1294;SDS011;640;48.310;11.728;2023-05-14T00:59:21;13.15;;;9.82;;
1294;SDS011;640;48.310;11.728;2023-05-14T01:01:51;14.43;;;9.82;;
1294;SDS011;640;48.310;11.728;2023-05-14T01:04:19;15.63;;;11.32;;
1294;SDS011;640;48.310;11.728;2023-05-14T01:06:49;14.50;;;9.43;;
1294;SDS011;640;48.310;11.728;2023-05-14T01:09:24;15.00;;;9.77;;
1294;SDS011;640;48.310;11.728;2023-05-14T01:11:56;13.57;;;9.20;;
1294;SDS011;640;48.310;11.728;2023-05-14T01:14:31;11.38;;;7.68;;
1294;SDS011;640;48.310;11.728;2023-05-14T01:17:04;13.95;;;9.70;;
1294;SDS011;640;48.310;11.728;2023-05-14T01:22:04;15.13;;;9.60;;
1294;SDS011;640;48.310;11.728;2023-05-14T01:24:32;13.20;;;10.10;;
1294;SDS011;640;48.310;11.728;2023-05-14T01:27:02;13.95;;;10.40;;
1294;SDS011;640;48.310;11.728;2023-05-14T01:29:34;14.30;;;10.10;;
1294;SDS011;640;48.310;11.728;2023-05-14T01:34:34;12.57;;;9.15;;
1294;SDS011;640;48.310;11.728;2023-05-14T01:37:04;15.60;;;10.25;;
1294;SDS011;640;48.310;11.728;2023-05-14T01:39:34;13.63;;;9.98;;
1294;SDS011;640;48.310;11.728;2023-05-14T01:42:04;13.10;;;10.15;;
1294;SDS011;640;48.310;11.728;2023-05-14T01:44:33;15.10;;;10.07;;
1294;SDS011;640;48.310;11.728;2023-05-14T01:47:02;13.73;;;9.85;;
1294;SDS011;640;48.310;11.728;2023-05-14T01:49:30;12.32;;;7.80;;
1294;SDS011;640;48.310;11.728;2023-05-14T01:51:59;13.63;;;9.70;;
1294;SDS011;640;48.310;11.728;2023-05-14T01:54:28;14.27;;;10.13;;
1294;SDS011;640;48.310;11.728;2023-05-14T01:56:56;14.23;;;9.68;;
1294;SDS011;640;48.310;11.728;2023-05-14T01:59:25;13.15;;;9.23;;
1294;SDS011;640;48.310;11.728;2023-05-14T02:01:55;14.70;;;9.98;;
1294;SDS011;640;48.310;11.728;2023-05-14T02:04:23;15.93;;;11.15;;
1294;SDS011;640;48.310;11.728;2023-05-14T02:06:52;14.27;;;10.20;;
1294;SDS011;640;48.310;11.728;2023-05-14T02:09:20;15.93;;;11.57;;
1294;SDS011;640;48.310;11.728;2023-05-14T02:11:50;15.70;;;10.18;;
1294;SDS011;640;48.310;11.728;2023-05-14T02:14:18;14.95;;;10.98;;
1294;SDS011;640;48.310;11.728;2023-05-14T02:16:47;13.23;;;10.38;;
1294;SDS011;640;48.310;11.728;2023-05-14T02:19:17;13.85;;;10.38;;
1294;SDS011;640;48.310;11.728;2023-05-14T02:21:46;15.07;;;10.43;;
1294;SDS011;640;48.310;11.728;2023-05-14T02:24:15;13.77;;;10.70;;
1294;SDS011;640;48.310;11.728;2023-05-14T02:26:43;15.20;;;10.70;;
1294;SDS011;640;48.310;11.728;2023-05-14T02:29:12;15.73;;;10.93;;
1294;SDS011;640;48.310;11.728;2023-05-14T02:31:41;12.23;;;8.73;;
1294;SDS011;640;48.310;11.728;2023-05-14T02:34:09;15.10;;;11.15;;
1294;SDS011;640;48.310;11.728;2023-05-14T02:36:37;15.70;;;10.35;;
1294;SDS011;640;48.310;11.728;2023-05-14T02:39:05;16.90;;;11.60;;
1294;SDS011;640;48.310;11.728;2023-05-14T02:41:34;15.98;;;11.75;;
1294;SDS011;640;48.310;11.728;2023-05-14T02:44:02;14.75;;;11.43;;
1294;SDS011;640;48.310;11.728;2023-05-14T02:46:32;15.80;;;11.35;;
1294;SDS011;640;48.310;11.728;2023-05-14T02:49:00;17.00;;;11.60;;
1294;SDS011;640;48.310;11.728;2023-05-14T02:51:29;16.52;;;10.68;;
1294;SDS011;640;48.310;11.728;2023-05-14T02:53:57;15.82;;;11.18;;
1294;SDS011;640;48.310;11.728;2023-05-14T02:56:25;17.50;;;12.30;;
1294;SDS011;640;48.310;11.728;2023-05-14T02:58:53;15.50;;;11.18;;
1294;SDS011;640;48.310;11.728;2023-05-14T03:01:22;16.45;;;11.10;;
1294;SDS011;640;48.310;11.728;2023-05-14T03:03:52;15.48;;;11.18;;
1294;SDS011;640;48.310;11.728;2023-05-14T03:06:21;15.53;;;11.20;;
1294;SDS011;640;48.310;11.728;2023-05-14T03:08:49;18.25;;;11.95;;
1294;SDS011;640;48.310;11.728;2023-05-14T03:11:17;17.23;;;11.52;;
1294;SDS011;640;48.310;11.728;2023-05-14T03:13:45;18.15;;;11.85;;
1294;SDS011;640;48.310;11.728;2023-05-14T03:16:14;17.42;;;12.13;;
1294;SDS011;640;48.310;11.728;2023-05-14T03:18:42;16.23;;;11.32;;
1294;SDS011;640;48.310;11.728;2023-05-14T03:21:12;22.60;;;12.88;;
1294;SDS011;640;48.310;11.728;2023-05-14T03:23:40;15.13;;;11.75;;
1294;SDS011;640;48.310;11.728;2023-05-14T03:26:08;17.02;;;11.93;;
1294;SDS011;640;48.310;11.728;2023-05-14T03:28:36;16.17;;;11.88;;
1294;SDS011;640;48.310;11.728;2023-05-14T03:31:05;16.73;;;12.30;;
1294;SDS011;640;48.310;11.728;2023-05-14T03:33:33;18.92;;;12.15;;
1294;SDS011;640;48.310;11.728;2023-05-14T03:36:02;19.83;;;11.73;;
1294;SDS011;640;48.310;11.728;2023-05-14T03:38:31;18.73;;;12.57;;
1294;SDS011;640;48.310;11.728;2023-05-14T03:41:00;18.88;;;11.63;;
1294;SDS011;640;48.310;11.728;2023-05-14T03:43:28;18.60;;;12.00;;
1294;SDS011;640;48.310;11.728;2023-05-14T03:45:56;17.33;;;12.07;;
1294;SDS011;640;48.310;11.728;2023-05-14T03:48:24;20.27;;;12.27;;
1294;SDS011;640;48.310;11.728;2023-05-14T03:50:53;18.77;;;12.80;;
1294;SDS011;640;48.310;11.728;2023-05-14T03:53:21;18.38;;;12.73;;
1294;SDS011;640;48.310;11.728;2023-05-14T03:55:51;16.60;;;11.43;;
1294;SDS011;640;48.310;11.728;2023-05-14T03:58:19;15.93;;;11.90;;
1294;SDS011;640;48.310;11.728;2023-05-14T04:00:47;20.23;;;12.52;;
1294;SDS011;640;48.310;11.728;2023-05-14T04:03:16;18.55;;;12.65;;
1294;SDS011;640;48.310;11.728;2023-05-14T04:05:44;19.25;;;12.18;;
1294;SDS011;640;48.310;11.728;2023-05-14T04:08:12;18.02;;;12.43;;
1294;SDS011;640;48.310;11.728;2023-05-14T04:10:41;17.48;;;12.00;;
1294;SDS011;640;48.310;11.728;2023-05-14T04:13:11;16.80;;;11.80;;
1294;SDS011;640;48.310;11.728;2023-05-14T04:15:39;19.57;;;12.50;;
1294;SDS011;640;48.310;11.728;2023-05-14T04:18:07;16.30;;;11.93;;
1294;SDS011;640;48.310;11.728;2023-05-14T04:20:35;19.13;;;12.43;;
1294;SDS011;640;48.310;11.728;2023-05-14T04:23:04;18.20;;;12.70;;
1294;SDS011;640;48.310;11.728;2023-05-14T04:25:32;17.15;;;11.55;;
1294;SDS011;640;48.310;11.728;2023-05-14T04:28:00;17.70;;;12.43;;
1294;SDS011;640;48.310;11.728;2023-05-14T04:30:30;18.63;;;11.77;;
1294;SDS011;640;48.310;11.728;2023-05-14T04:32:58;17.45;;;11.80;;
1294;SDS011;640;48.310;11.728;2023-05-14T04:35:27;19.83;;;12.57;;
1294;SDS011;640;48.310;11.728;2023-05-14T04:37:55;17.13;;;11.30;;
1294;SDS011;640;48.310;11.728;2023-05-14T04:40:23;16.52;;;11.88;;
1294;SDS011;640;48.310;11.728;2023-05-14T04:42:52;16.98;;;12.93;;
1294;SDS011;640;48.310;11.728;2023-05-14T04:45:20;18.85;;;12.48;;
1294;SDS011;640;48.310;11.728;2023-05-14T04:47:50;17.58;;;11.45;;
1294;SDS011;640;48.310;11.728;2023-05-14T04:50:18;20.57;;;12.73;;
1294;SDS011;640;48.310;11.728;2023-05-14T04:52:47;21.00;;;13.45;;
1294;SDS011;640;48.310;11.728;2023-05-14T04:55:15;25.15;;;13.35;;
1294;SDS011;640;48.310;11.728;2023-05-14T04:57:43;17.65;;;12.90;;
1294;SDS011;640;48.310;11.728;2023-05-14T05:00:12;16.05;;;12.15;;
1294;SDS011;640;48.310;11.728;2023-05-14T05:02:41;18.45;;;12.13;;
1294;SDS011;640;48.310;11.728;2023-05-14T05:05:11;17.40;;;12.40;;
1294;SDS011;640;48.310;11.728;2023-05-14T05:07:39;20.35;;;12.95;;
1294;SDS011;640;48.310;11.728;2023-05-14T05:10:08;20.25;;;12.80;;
1294;SDS011;640;48.310;11.728;2023-05-14T05:12:36;19.98;;;13.05;;
1294;SDS011;640;48.310;11.728;2023-05-14T05:15:05;17.83;;;13.38;;
1294;SDS011;640;48.310;11.728;2023-05-14T05:17:35;15.93;;;11.63;;
1294;SDS011;640;48.310;11.728;2023-05-14T05:20:04;20.35;;;12.82;;
1294;SDS011;640;48.310;11.728;2023-05-14T05:22:36;22.27;;;13.05;;
1294;SDS011;640;48.310;11.728;2023-05-14T05:25:05;19.38;;;12.27;;
1294;SDS011;640;48.310;11.728;2023-05-14T05:27:34;18.70;;;13.05;;
1294;SDS011;640;48.310;11.728;2023-05-14T05:30:03;18.85;;;13.07;;
1294;SDS011;640;48.310;11.728;2023-05-14T05:32:33;19.00;;;13.05;;
1294;SDS011;640;48.310;11.728;2023-05-14T05:35:02;20.85;;;13.52;;
1294;SDS011;640;48.310;11.728;2023-05-14T05:37:30;17.75;;;12.05;;
1294;SDS011;640;48.310;11.728;2023-05-14T05:40:00;24.63;;;13.68;;
1294;SDS011;640;48.310;11.728;2023-05-14T05:42:30;20.52;;;13.50;;
1294;SDS011;640;48.310;11.728;2023-05-14T05:44:58;22.15;;;13.65;;
1294;SDS011;640;48.310;11.728;2023-05-14T05:47:26;20.67;;;13.15;;
1294;SDS011;640;48.310;11.728;2023-05-14T05:49:55;20.90;;;14.27;;
1294;SDS011;640;48.310;11.728;2023-05-14T05:52:24;21.40;;;13.05;;
1294;SDS011;640;48.310;11.728;2023-05-14T05:54:52;20.42;;;13.43;;
1294;SDS011;640;48.310;11.728;2023-05-14T05:57:22;20.25;;;13.73;;
1294;SDS011;640;48.310;11.728;2023-05-14T05:59:52;19.85;;;12.48;;
1294;SDS011;640;48.310;11.728;2023-05-14T06:02:21;19.33;;;13.85;;
1294;SDS011;640;48.310;11.728;2023-05-14T06:04:51;22.27;;;14.77;;
1294;SDS011;640;48.310;11.728;2023-05-14T06:07:19;21.70;;;14.00;;
1294;SDS011;640;48.310;11.728;2023-05-14T06:09:47;22.55;;;12.10;;
1294;SDS011;640;48.310;11.728;2023-05-14T06:12:16;21.67;;;12.60;;
1294;SDS011;640;48.310;11.728;2023-05-14T06:14:45;22.58;;;13.30;;
1294;SDS011;640;48.310;11.728;2023-05-14T06:17:13;21.40;;;12.88;;
1294;SDS011;640;48.310;11.728;2023-05-14T06:19:42;22.98;;;14.52;;
1294;SDS011;640;48.310;11.728;2023-05-14T06:22:10;21.08;;;13.48;;
1294;SDS011;640;48.310;11.728;2023-05-14T06:24:38;22.60;;;14.13;;
1294;SDS011;640;48.310;11.728;2023-05-14T06:27:06;23.13;;;13.82;;
1294;SDS011;640;48.310;11.728;2023-05-14T06:29:35;24.00;;;13.20;;
1294;SDS011;640;48.310;11.728;2023-05-14T06:32:05;19.38;;;12.13;;
1294;SDS011;640;48.310;11.728;2023-05-14T06:34:34;20.38;;;13.30;;
1294;SDS011;640;48.310;11.728;2023-05-14T06:37:02;20.65;;;13.38;;
1294;SDS011;640;48.310;11.728;2023-05-14T06:39:32;23.95;;;13.35;;
1294;SDS011;640;48.310;11.728;2023-05-14T06:42:01;23.25;;;13.13;;
1294;SDS011;640;48.310;11.728;2023-05-14T06:44:29;18.38;;;11.25;;
1294;SDS011;640;48.310;11.728;2023-05-14T06:46:57;19.35;;;12.57;;
1294;SDS011;640;48.310;11.728;2023-05-14T06:49:27;21.23;;;12.02;;
1294;SDS011;640;48.310;11.728;2023-05-14T06:51:55;18.52;;;11.15;;
1294;SDS011;640;48.310;11.728;2023-05-14T06:54:23;21.70;;;11.30;;
1294;SDS011;640;48.310;11.728;2023-05-14T06:56:52;18.45;;;12.02;;
1294;SDS011;640;48.310;11.728;2023-05-14T06:59:20;20.40;;;12.57;;
1294;SDS011;640;48.310;11.728;2023-05-14T07:01:48;20.38;;;12.65;;
1294;SDS011;640;48.310;11.728;2023-05-14T07:04:17;15.98;;;10.93;;
1294;SDS011;640;48.310;11.728;2023-05-14T07:06:46;19.00;;;12.40;;
1294;SDS011;640;48.310;11.728;2023-05-14T07:09:15;19.92;;;11.70;;
1294;SDS011;640;48.310;11.728;2023-05-14T07:11:43;18.80;;;12.40;;
1294;SDS011;640;48.310;11.728;2023-05-14T07:14:11;17.92;;;12.27;;
1294;SDS011;640;48.310;11.728;2023-05-14T07:16:39;18.23;;;12.27;;
1294;SDS011;640;48.310;11.728;2023-05-14T07:19:08;18.05;;;12.20;;
1294;SDS011;640;48.310;11.728;2023-05-14T07:21:37;18.15;;;13.00;;
1294;SDS011;640;48.310;11.728;2023-05-14T07:24:07;19.50;;;11.88;;
1294;SDS011;640;48.310;11.728;2023-05-14T07:26:35;16.52;;;10.98;;
1294;SDS011;640;48.310;11.728;2023-05-14T07:29:03;18.25;;;11.63;;
1294;SDS011;640;48.310;11.728;2023-05-14T07:31:32;17.05;;;11.82;;
1294;SDS011;640;48.310;11.728;2023-05-14T07:34:00;17.83;;;11.50;;
1294;SDS011;640;48.310;11.728;2023-05-14T07:36:28;16.73;;;9.98;;
1294;SDS011;640;48.310;11.728;2023-05-14T07:38:57;19.38;;;12.32;;
1294;SDS011;640;48.310;11.728;2023-05-14T07:41:26;14.57;;;10.07;;
1294;SDS011;640;48.310;11.728;2023-05-14T07:43:55;17.47;;;12.93;;
1294;SDS011;640;48.310;11.728;2023-05-14T07:46:23;18.13;;;12.07;;
1294;SDS011;640;48.310;11.728;2023-05-14T07:48:51;16.30;;;11.90;;
1294;SDS011;640;48.310;11.728;2023-05-14T07:51:19;18.50;;;12.25;;
1294;SDS011;640;48.310;11.728;2023-05-14T07:53:48;16.05;;;11.95;;
1294;SDS011;640;48.310;11.728;2023-05-14T07:56:17;17.25;;;12.27;;
1294;SDS011;640;48.310;11.728;2023-05-14T07:58:47;17.08;;;12.13;;
1294;SDS011;640;48.310;11.728;2023-05-14T08:01:15;18.30;;;12.37;;
1294;SDS011;640;48.310;11.728;2023-05-14T08:03:43;13.43;;;7.68;;
1294;SDS011;640;48.310;11.728;2023-05-14T08:06:12;15.18;;;11.30;;
1294;SDS011;640;48.310;11.728;2023-05-14T08:08:40;15.30;;;10.63;;
1294;SDS011;640;48.310;11.728;2023-05-14T08:11:08;15.20;;;10.70;;
1294;SDS011;640;48.310;11.728;2023-05-14T08:13:38;13.60;;;10.40;;
1294;SDS011;640;48.310;11.728;2023-05-14T08:16:08;14.35;;;10.13;;
1294;SDS011;640;48.310;11.728;2023-05-14T08:18:37;14.27;;;10.50;;
1294;SDS011;640;48.310;11.728;2023-05-14T08:21:05;14.20;;;9.73;;
1294;SDS011;640;48.310;11.728;2023-05-14T08:23:33;12.23;;;8.98;;
1294;SDS011;640;48.310;11.728;2023-05-14T08:26:01;12.15;;;9.52;;
1294;SDS011;640;48.310;11.728;2023-05-14T08:28:30;11.20;;;9.05;;
1294;SDS011;640;48.310;11.728;2023-05-14T08:30:58;11.75;;;8.80;;
1294;SDS011;640;48.310;11.728;2023-05-14T08:33:28;12.40;;;8.73;;
1294;SDS011;640;48.310;11.728;2023-05-14T08:35:56;11.00;;;8.60;;
1294;SDS011;640;48.310;11.728;2023-05-14T08:38:26;10.88;;;8.63;;
1294;SDS011;640;48.310;11.728;2023-05-14T08:40:55;10.70;;;8.45;;
1294;SDS011;640;48.310;11.728;2023-05-14T08:43:24;9.37;;;7.87;;
1294;SDS011;640;48.310;11.728;2023-05-14T08:45:56;9.85;;;8.02;;
1294;SDS011;640;48.310;11.728;2023-05-14T08:48:25;9.77;;;7.00;;
1294;SDS011;640;48.310;11.728;2023-05-14T08:50:59;10.25;;;8.07;;
1294;SDS011;640;48.310;11.728;2023-05-14T08:53:28;10.00;;;7.45;;
1294;SDS011;640;48.310;11.728;2023-05-14T08:55:57;9.30;;;6.72;;
1294;SDS011;640;48.310;11.728;2023-05-14T09:00:55;10.15;;;7.65;;
1294;SDS011;640;48.310;11.728;2023-05-14T09:03:24;10.27;;;7.80;;
1294;SDS011;640;48.310;11.728;2023-05-14T09:05:53;9.55;;;7.15;;
1294;SDS011;640;48.310;11.728;2023-05-14T09:08:25;10.90;;;7.65;;
1294;SDS011;640;48.310;11.728;2023-05-14T09:10:53;11.18;;;8.48;;
1294;SDS011;640;48.310;11.728;2023-05-14T09:13:22;11.63;;;6.63;;
1294;SDS011;640;48.310;11.728;2023-05-14T09:15:53;9.88;;;7.45;;
1294;SDS011;640;48.310;11.728;2023-05-14T09:18:21;10.07;;;8.18;;
1294;SDS011;640;48.310;11.728;2023-05-14T09:20:50;9.90;;;7.50;;
1294;SDS011;640;48.310;11.728;2023-05-14T09:23:20;9.85;;;7.47;;
1294;SDS011;640;48.310;11.728;2023-05-14T09:25:48;9.55;;;7.63;;
1294;SDS011;640;48.310;11.728;2023-05-14T09:28:16;9.85;;;8.48;;
1294;SDS011;640;48.310;11.728;2023-05-14T09:30:49;8.55;;;7.57;;
1294;SDS011;640;48.310;11.728;2023-05-14T09:33:24;9.77;;;6.75;;
1294;SDS011;640;48.310;11.728;2023-05-14T09:35:54;10.32;;;7.65;;
1294;SDS011;640;48.310;11.728;2023-05-14T09:38:28;9.70;;;7.55;;
1294;SDS011;640;48.310;11.728;2023-05-14T09:40:57;13.90;;;10.05;;
1294;SDS011;640;48.310;11.728;2023-05-14T09:43:25;11.27;;;7.90;;
1294;SDS011;640;48.310;11.728;2023-05-14T09:45:54;10.45;;;7.93;;
1294;SDS011;640;48.310;11.728;2023-05-14T09:48:22;9.50;;;7.65;;
1294;SDS011;640;48.310;11.728;2023-05-14T09:50:50;9.75;;;7.97;;
1294;SDS011;640;48.310;11.728;2023-05-14T09:53:19;11.25;;;8.40;;
1294;SDS011;640;48.310;11.728;2023-05-14T09:55:49;13.32;;;9.57;;
1294;SDS011;640;48.310;11.728;2023-05-14T09:58:17;11.00;;;8.85;;
1294;SDS011;640;48.310;11.728;2023-05-14T10:00:45;10.20;;;8.60;;
1294;SDS011;640;48.310;11.728;2023-05-14T10:03:14;10.98;;;8.30;;
1294;SDS011;640;48.310;11.728;2023-05-14T10:05:45;11.00;;;9.25;;
1294;SDS011;640;48.310;11.728;2023-05-14T10:08:18;11.70;;;9.00;;
1294;SDS011;640;48.310;11.728;2023-05-14T10:10:50;10.70;;;8.73;;
1294;SDS011;640;48.310;11.728;2023-05-14T10:13:22;11.50;;;9.18;;
1294;SDS011;640;48.310;11.728;2023-05-14T10:15:53;9.90;;;8.52;;
1294;SDS011;640;48.310;11.728;2023-05-14T10:18:24;12.32;;;7.72;;
1294;SDS011;640;48.310;11.728;2023-05-14T10:20:56;12.18;;;8.05;;
1294;SDS011;640;48.310;11.728;2023-05-14T10:23:30;11.57;;;8.95;;
1294;SDS011;640;48.310;11.728;2023-05-14T10:26:00;12.38;;;8.13;;
1294;SDS011;640;48.310;11.728;2023-05-14T10:28:28;10.82;;;8.80;;
1294;SDS011;640;48.310;11.728;2023-05-14T10:30:58;11.00;;;8.32;;
1294;SDS011;640;48.310;11.728;2023-05-14T10:33:26;11.60;;;8.90;;
1294;SDS011;640;48.310;11.728;2023-05-14T10:35:56;12.30;;;8.25;;
1294;SDS011;640;48.310;11.728;2023-05-14T10:38:26;11.15;;;8.23;;
1294;SDS011;640;48.310;11.728;2023-05-14T10:40:55;10.32;;;8.30;;
1294;SDS011;640;48.310;11.728;2023-05-14T10:43:27;11.68;;;8.77;;
1294;SDS011;640;48.310;11.728;2023-05-14T10:45:57;11.27;;;8.80;;
1294;SDS011;640;48.310;11.728;2023-05-14T10:48:25;10.00;;;8.35;;
1294;SDS011;640;48.310;11.728;2023-05-14T10:50:54;12.40;;;9.43;;
1294;SDS011;640;48.310;11.728;2023-05-14T10:53:30;9.75;;;8.40;;
1294;SDS011;640;48.310;11.728;2023-05-14T10:56:01;9.30;;;8.30;;
1294;SDS011;640;48.310;11.728;2023-05-14T10:58:35;12.10;;;8.60;;
1294;SDS011;640;48.310;11.728;2023-05-14T11:01:04;10.75;;;8.23;;
1294;SDS011;640;48.310;11.728;2023-05-14T11:03:38;9.32;;;7.72;;
1294;SDS011;640;48.310;11.728;2023-05-14T11:06:08;12.38;;;8.80;;
1294;SDS011;640;48.310;11.728;2023-05-14T11:08:36;10.05;;;8.50;;
1294;SDS011;640;48.310;11.728;2023-05-14T11:11:05;10.30;;;8.45;;
1294;SDS011;640;48.310;11.728;2023-05-14T11:13:36;10.27;;;8.53;;
1294;SDS011;640;48.310;11.728;2023-05-14T11:16:05;9.80;;;8.50;;
1294;SDS011;640;48.310;11.728;2023-05-14T11:18:36;11.68;;;8.40;;
1294;SDS011;640;48.310;11.728;2023-05-14T11:21:07;10.55;;;8.18;;
1294;SDS011;640;48.310;11.728;2023-05-14T11:23:35;10.77;;;8.20;;
1294;SDS011;640;48.310;11.728;2023-05-14T11:26:04;9.73;;;8.25;;
1294;SDS011;640;48.310;11.728;2023-05-14T11:28:32;10.80;;;8.27;;
1294;SDS011;640;48.310;11.728;2023-05-14T11:31:02;8.77;;;7.72;;
1294;SDS011;640;48.310;11.728;2023-05-14T11:33:31;10.43;;;8.98;;
1294;SDS011;640;48.310;11.728;2023-05-14T11:35:59;9.27;;;8.27;;
1294;SDS011;640;48.310;11.728;2023-05-14T11:38:27;11.05;;;8.55;;
1294;SDS011;640;48.310;11.728;2023-05-14T11:40:56;11.48;;;8.68;;
1294;SDS011;640;48.310;11.728;2023-05-14T11:43:25;9.60;;;8.20;;
1294;SDS011;640;48.310;11.728;2023-05-14T11:45:55;9.40;;;8.37;;
1294;SDS011;640;48.310;11.728;2023-05-14T11:48:25;8.82;;;7.90;;
1294;SDS011;640;48.310;11.728;2023-05-14T11:50:53;10.93;;;8.35;;
1294;SDS011;640;48.310;11.728;2023-05-14T11:53:24;10.90;;;8.48;;
1294;SDS011;640;48.310;11.728;2023-05-14T11:55:53;8.00;;;7.20;;
1294;SDS011;640;48.310;11.728;2023-05-14T11:58:23;9.43;;;7.43;;
1294;SDS011;640;48.310;11.728;2023-05-14T12:00:52;7.50;;;6.80;;
1294;SDS011;640;48.310;11.728;2023-05-14T12:03:21;7.95;;;6.90;;
1294;SDS011;640;48.310;11.728;2023-05-14T12:05:56;7.97;;;6.47;;
1294;SDS011;640;48.310;11.728;2023-05-14T12:08:26;8.00;;;7.20;;
1294;SDS011;640;48.310;11.728;2023-05-14T12:10:54;9.73;;;6.78;;
1294;SDS011;640;48.310;11.728;2023-05-14T12:13:25;8.10;;;7.30;;
1294;SDS011;640;48.310;11.728;2023-05-14T12:15:54;8.27;;;7.45;;
1294;SDS011;640;48.310;11.728;2023-05-14T12:18:23;9.82;;;7.00;;
1294;SDS011;640;48.310;11.728;2023-05-14T12:20:52;8.45;;;7.15;;
1294;SDS011;640;48.310;11.728;2023-05-14T12:23:25;8.60;;;7.10;;
1294;SDS011;640;48.310;11.728;2023-05-14T12:25:53;6.97;;;6.28;;
1294;SDS011;640;48.310;11.728;2023-05-14T12:28:21;7.72;;;6.68;;
1294;SDS011;640;48.310;11.728;2023-05-14T12:30:54;7.80;;;6.22;;
1294;SDS011;640;48.310;11.728;2023-05-14T12:33:23;8.05;;;6.68;;
1294;SDS011;640;48.310;11.728;2023-05-14T12:35:52;8.13;;;7.05;;
1294;SDS011;640;48.310;11.728;2023-05-14T12:38:27;7.80;;;6.97;;
1294;SDS011;640;48.310;11.728;2023-05-14T12:40:55;7.70;;;6.38;;
1294;SDS011;640;48.310;11.728;2023-05-14T12:43:24;7.75;;;6.18;;
1294;SDS011;640;48.310;11.728;2023-05-14T12:45:57;8.23;;;6.82;;
1294;SDS011;640;48.310;11.728;2023-05-14T12:48:25;7.63;;;6.40;;
1294;SDS011;640;48.310;11.728;2023-05-14T12:50:53;7.35;;;6.55;;
1294;SDS011;640;48.310;11.728;2023-05-14T12:53:21;9.32;;;6.90;;
1294;SDS011;640;48.310;11.728;2023-05-14T12:55:51;8.45;;;6.38;;
1294;SDS011;640;48.310;11.728;2023-05-14T12:58:19;8.38;;;6.95;;
1294;SDS011;640;48.310;11.728;2023-05-14T13:00:47;7.32;;;6.03;;
1294;SDS011;640;48.310;11.728;2023-05-14T13:03:16;7.57;;;5.88;;
1294;SDS011;640;48.310;11.728;2023-05-14T13:05:44;7.43;;;5.85;;
1294;SDS011;640;48.310;11.728;2023-05-14T13:08:12;7.85;;;6.43;;
1294;SDS011;640;48.310;11.728;2023-05-14T13:10:43;7.57;;;4.95;;
1294;SDS011;640;48.310;11.728;2023-05-14T13:13:13;7.10;;;6.18;;
1294;SDS011;640;48.310;11.728;2023-05-14T13:15:42;6.45;;;5.03;;
1294;SDS011;640;48.310;11.728;2023-05-14T13:18:12;6.88;;;5.85;;
1294;SDS011;640;48.310;11.728;2023-05-14T13:20:40;6.60;;;5.70;;
1294;SDS011;640;48.310;11.728;2023-05-14T13:23:09;7.40;;;6.40;;
1294;SDS011;640;48.310;11.728;2023-05-14T13:25:37;7.25;;;5.97;;
1294;SDS011;640;48.310;11.728;2023-05-14T13:28:07;8.05;;;6.60;;
1294;SDS011;640;48.310;11.728;2023-05-14T13:30:36;6.60;;;5.57;;
1294;SDS011;640;48.310;11.728;2023-05-14T13:33:05;7.30;;;6.18;;
1294;SDS011;640;48.310;11.728;2023-05-14T13:35:33;6.38;;;5.25;;
1294;SDS011;640;48.310;11.728;2023-05-14T13:38:01;5.82;;;4.50;;
1294;SDS011;640;48.310;11.728;2023-05-14T13:40:30;7.30;;;5.10;;
1294;SDS011;640;48.310;11.728;2023-05-14T13:42:58;8.20;;;4.38;;
1294;SDS011;640;48.310;11.728;2023-05-14T13:45:26;6.10;;;4.57;;
1294;SDS011;640;48.310;11.728;2023-05-14T13:47:56;5.72;;;4.80;;
1294;SDS011;640;48.310;11.728;2023-05-14T13:50:25;7.15;;;6.05;;
1294;SDS011;640;48.310;11.728;2023-05-14T13:52:53;6.78;;;5.68;;
1294;SDS011;640;48.310;11.728;2023-05-14T13:55:21;6.07;;;5.22;;
1294;SDS011;640;48.310;11.728;2023-05-14T13:57:50;7.05;;;5.40;;
1294;SDS011;640;48.310;11.728;2023-05-14T14:00:18;6.55;;;5.03;;
1294;SDS011;640;48.310;11.728;2023-05-14T14:02:47;4.82;;;4.18;;
1294;SDS011;640;48.310;11.728;2023-05-14T14:05:16;4.15;;;3.65;;
1294;SDS011;640;48.310;11.728;2023-05-14T14:07:45;3.95;;;3.55;;
1294;SDS011;640;48.310;11.728;2023-05-14T14:10:17;5.93;;;4.30;;
1294;SDS011;640;48.310;11.728;2023-05-14T14:12:45;5.60;;;4.30;;
1294;SDS011;640;48.310;11.728;2023-05-14T14:15:13;5.25;;;4.15;;
1294;SDS011;640;48.310;11.728;2023-05-14T14:17:42;5.43;;;4.15;;
1294;SDS011;640;48.310;11.728;2023-05-14T14:20:10;4.70;;;3.92;;
1294;SDS011;640;48.310;11.728;2023-05-14T14:22:41;4.18;;;3.30;;
1294;SDS011;640;48.310;11.728;2023-05-14T14:25:10;4.75;;;3.65;;
1294;SDS011;640;48.310;11.728;2023-05-14T14:27:39;4.00;;;3.00;;
1294;SDS011;640;48.310;11.728;2023-05-14T14:30:08;4.55;;;3.25;;
1294;SDS011;640;48.310;11.728;2023-05-14T14:32:42;5.80;;;3.92;;
1294;SDS011;640;48.310;11.728;2023-05-14T14:35:11;5.15;;;3.50;;
1294;SDS011;640;48.310;11.728;2023-05-14T14:37:42;3.63;;;2.67;;
1294;SDS011;640;48.310;11.728;2023-05-14T14:40:14;2.97;;;2.58;;
1294;SDS011;640;48.310;11.728;2023-05-14T14:42:42;2.88;;;2.50;;
1294;SDS011;640;48.310;11.728;2023-05-14T14:45:11;2.83;;;2.50;;
1294;SDS011;640;48.310;11.728;2023-05-14T14:47:41;4.78;;;2.67;;
1294;SDS011;640;48.310;11.728;2023-05-14T14:50:10;3.83;;;3.30;;
1294;SDS011;640;48.310;11.728;2023-05-14T14:52:39;3.65;;;3.28;;
1294;SDS011;640;48.310;11.728;2023-05-14T14:55:13;2.50;;;2.10;;
1294;SDS011;640;48.310;11.728;2023-05-14T14:57:41;3.85;;;2.30;;
1294;SDS011;640;48.310;11.728;2023-05-14T15:00:10;2.88;;;2.50;;
1294;SDS011;640;48.310;11.728;2023-05-14T15:02:39;3.38;;;2.60;;
1294;SDS011;640;48.310;11.728;2023-05-14T15:05:08;2.45;;;2.00;;
1294;SDS011;640;48.310;11.728;2023-05-14T15:07:37;2.75;;;2.28;;
1294;SDS011;640;48.310;11.728;2023-05-14T15:10:05;3.20;;;2.72;;
1294;SDS011;640;48.310;11.728;2023-05-14T15:12:35;3.25;;;2.25;;
1294;SDS011;640;48.310;11.728;2023-05-14T15:15:04;3.13;;;2.00;;
1294;SDS011;640;48.310;11.728;2023-05-14T15:17:33;3.05;;;1.63;;
1294;SDS011;640;48.310;11.728;2023-05-14T15:20:01;2.58;;;2.08;;